Time;durP1;ratioP1;P1;durP2;ratioP2;P2;SDS_P1;SDS_P2;PMS_P1;PMS_P2;Temp;Humidity;BMP_temperature;BMP_pressure;BME280_temperature;BME280_humidity;BME280_pressure;Samples;Min_cycle;Max_cycle;Signal;HPM_P1;HPM_P2
2022/09/27 00:00:35;;;;;;;1.75;0.88;;;20.80;58.90;;;;;;5060705;28;20048;-52
2022/09/27 00:03:01;;;;;;;2.25;0.52;;;20.80;58.90;;;;;;5055301;28;20061;-51
2022/09/27 00:05:28;;;;;;;4.15;0.77;;;20.80;58.90;;;;;;5038767;28;20040;-53
2022/09/27 00:07:55;;;;;;;1.27;0.82;;;20.90;58.90;;;;;;5055482;28;20028;-46
2022/09/27 00:10:21;;;;;;;2.45;0.70;;;20.90;58.90;;;;;;5059365;28;20040;-46
2022/09/27 00:12:47;;;;;;;2.10;0.88;;;20.90;58.90;;;;;;5052910;28;20139;-45
2022/09/27 00:15:14;;;;;;;2.90;0.68;;;20.90;58.80;;;;;;5053332;28;20108;-51
2022/09/27 00:17:40;;;;;;;1.90;0.63;;;20.90;58.80;;;;;;5062809;28;20037;-48
2022/09/27 00:20:06;;;;;;;2.67;0.80;;;20.90;58.90;;;;;;5059191;28;20087;-48
2022/09/27 00:22:32;;;;;;;1.50;0.68;;;20.90;59.00;;;;;;5063806;28;20025;-48
2022/09/27 00:24:59;;;;;;;1.15;0.70;;;20.90;59.00;;;;;;5058255;28;20056;-51
2022/09/27 00:27:25;;;;;;;1.27;0.80;;;20.90;59.00;;;;;;5060301;28;20332;-50
2022/09/27 00:29:51;;;;;;;1.75;0.77;;;20.90;59.00;;;;;;5057540;28;20500;-49
2022/09/27 00:32:17;;;;;;;2.25;0.90;;;20.90;59.00;;;;;;5058950;28;20182;-47
2022/09/27 00:34:44;;;;;;;1.60;0.90;;;20.90;59.00;;;;;;5058204;28;20028;-51
2022/09/27 00:37:10;;;;;;;1.75;0.82;;;20.90;59.10;;;;;;5056437;28;20064;-46
2022/09/27 00:39:40;;;;;;;1.67;0.70;;;20.90;59.00;;;;;;5057565;28;20025;-52
2022/09/27 00:42:09;;;;;;;1.50;0.80;;;20.90;59.40;;;;;;5062773;28;20033;-51
2022/09/27 00:44:38;;;;;;;1.00;0.70;;;20.90;59.10;;;;;;5031587;28;20033;-47
2022/09/27 00:47:27;;;;;;;1.05;0.70;;;20.90;59.10;;;;;;5058402;28;20029;-52
2022/09/27 00:50:05;;;;;;;1.85;0.80;;;20.90;59.20;;;;;;5067465;28;20032;-48
2022/09/27 00:52:40;;;;;;;1.65;0.70;;;21.00;59.30;;;;;;5052431;28;20036;-50
2022/09/27 00:55:11;;;;;;;0.70;0.60;;;20.90;59.20;;;;;;5033409;28;20099;-51
2022/09/27 00:57:37;;;;;;;2.92;0.85;;;21.00;59.30;;;;;;5064094;28;20055;-50
2022/09/27 01:00:08;;;;;;;0.93;0.70;;;21.00;59.30;;;;;;5066779;28;20036;-53
2022/09/27 01:02:39;;;;;;;2.72;0.73;;;20.90;59.20;;;;;;5059282;28;20032;-47
2022/09/27 01:05:05;;;;;;;1.17;0.90;;;20.90;59.30;;;;;;5062972;28;20037;-49
2022/09/27 01:07:32;;;;;;;1.20;0.70;;;21.00;59.50;;;;;;5037057;28;20026;-46
2022/09/27 01:09:58;;;;;;;0.88;0.68;;;21.00;59.60;;;;;;5044912;28;20037;-52
2022/09/27 01:12:43;;;;;;;2.35;0.80;;;21.00;59.60;;;;;;5057066;28;20032;-51
2022/09/27 01:15:18;;;;;;;3.33;0.90;;;21.00;59.60;;;;;;5060314;28;20081;-50
2022/09/27 01:17:55;;;;;;;1.00;0.75;;;21.00;59.60;;;;;;5065009;28;20055;-52
2022/09/27 01:20:40;;;;;;;5.00;1.10;;;21.00;59.60;;;;;;5064069;28;20017;-52
2022/09/27 01:23:31;;;;;;;2.47;0.80;;;21.00;59.60;;;;;;5060951;28;20242;-46
2022/09/27 01:26:02;;;;;;;1.08;0.60;;;21.00;59.60;;;;;;5050005;28;20028;-46
2022/09/27 01:29:06;;;;;;;2.58;0.80;;;21.00;59.50;;;;;;5033669;28;20021;-47
2022/09/27 01:31:53;;;;;;;1.05;0.65;;;21.00;59.60;;;;;;5060953;28;20032;-50
2022/09/27 01:34:40;;;;;;;1.08;0.70;;;21.00;59.50;;;;;;5074966;28;20068;-49
2022/09/27 01:37:14;;;;;;;1.25;0.82;;;21.10;59.60;;;;;;5073900;28;20025;-50
2022/09/27 01:40:01;;;;;;;0.88;0.70;;;21.00;59.50;;;;;;5078530;28;20044;-46
2022/09/27 01:42:35;;;;;;;1.10;0.95;;;21.00;59.50;;;;;;5074669;28;20025;-49
2022/09/27 01:45:22;;;;;;;1.48;0.80;;;21.10;59.50;;;;;;5076110;28;20042;-52
2022/09/27 01:47:56;;;;;;;1.17;0.60;;;21.10;59.50;;;;;;5083117;28;20054;-51
2022/09/27 01:50:32;;;;;;;0.68;0.60;;;21.10;59.60;;;;;;5068425;28;20076;-52
2022/09/27 01:53:17;;;;;;;0.98;0.70;;;21.10;59.60;;;;;;5068465;28;20150;-47
2022/09/27 01:55:43;;;;;;;1.23;0.80;;;21.10;59.60;;;;;;5065959;28;20200;-52
2022/09/27 01:58:18;;;;;;;2.25;0.95;;;21.10;59.60;;;;;;5073637;28;20124;-54
2022/09/27 02:00:46;;;;;;;1.13;0.80;;;21.10;59.70;;;;;;5066882;28;20039;-53
2022/09/27 02:03:16;;;;;;;;;;;21.10;60.40;;;;;;5092869;28;20145;-52
2022/09/27 02:05:51;;;;;;;0.82;0.60;;;21.10;59.70;;;;;;5088408;28;19912;-48
2022/09/27 02:08:33;;;;;;;0.90;0.70;;;21.10;59.70;;;;;;5082001;28;20409;-49
2022/09/27 02:11:00;;;;;;;1.83;0.90;;;21.10;59.80;;;;;;5079526;28;20081;-47
2022/09/27 02:13:39;;;;;;;2.42;0.60;;;21.10;59.80;;;;;;5066293;28;20033;-45
2022/09/27 02:16:13;;;;;;;1.48;0.70;;;21.10;59.80;;;;;;5005639;28;20040;-50
2022/09/27 02:19:02;;;;;;;2.28;0.77;;;21.10;60.00;;;;;;5019613;28;20033;-50
2022/09/27 02:21:48;;;;;;;1.05;0.70;;;21.10;59.90;;;;;;5052602;28;20047;-50
2022/09/27 02:24:19;;;;;;;1.15;0.85;;;21.10;60.00;;;;;;5074456;28;20075;-51
2022/09/27 02:26:45;;;;;;;0.73;0.73;;;21.10;60.00;;;;;;5073993;28;20382;-48
2022/09/27 02:29:17;;;;;;;2.10;1.00;;;21.10;60.20;;;;;;5057839;28;20374;-48
2022/09/27 02:31:43;;;;;;;1.23;0.90;;;21.10;60.40;;;;;;5074603;28;20269;-46
2022/09/27 02:34:18;;;;;;;0.90;0.80;;;21.10;60.40;;;;;;5077635;28;20152;-53
2022/09/27 02:36:44;;;;;;;0.70;0.70;;;21.20;60.70;;;;;;5085211;28;20104;-50
2022/09/27 02:39:11;;;;;;;2.50;0.90;;;21.20;60.70;;;;;;5078673;28;20064;-50
2022/09/27 02:41:37;;;;;;;0.82;0.68;;;21.10;60.80;;;;;;5059318;28;20074;-45
2022/09/27 02:44:04;;;;;;;1.30;1.00;;;21.20;61.00;;;;;;5068796;28;20035;-46
2022/09/27 02:47:07;;;;;;;0.70;0.70;;;21.10;61.10;;;;;;5065013;28;20075;-46
2022/09/27 02:50:00;;;;;;;1.15;1.00;;;21.20;61.40;;;;;;5062508;28;20029;-45
2022/09/27 02:52:36;;;;;;;1.10;0.90;;;21.20;61.50;;;;;;5079908;28;20024;-46
2022/09/27 02:55:29;;;;;;;2.58;0.80;;;21.10;61.50;;;;;;5094493;28;20119;-49
2022/09/27 02:58:33;;;;;;;1.98;0.80;;;21.20;61.70;;;;;;5062602;28;20083;-50
2022/09/27 03:01:31;;;;;;;1.95;0.90;;;21.20;61.90;;;;;;5076892;28;20038;-48
2022/09/27 03:04:10;;;;;;;3.03;1.02;;;21.20;62.00;;;;;;5079984;28;20107;-46
2022/09/27 03:06:37;;;;;;;1.05;0.90;;;21.10;62.00;;;;;;5084324;28;20055;-50
2022/09/27 03:09:03;;;;;;;;;;;21.10;61.80;;;;;;5080647;28;20040;-48
2022/09/27 03:11:29;;;;;;;1.15;0.90;;;21.10;62.00;;;;;;5085482;28;19973;-48
2022/09/27 03:13:55;;;;;;;1.00;0.90;;;21.10;62.00;;;;;;5087791;28;20033;-49
2022/09/27 03:16:21;;;;;;;1.88;0.70;;;21.10;61.80;;;;;;5093940;28;20032;-46
2022/09/27 03:18:48;;;;;;;1.45;0.80;;;21.10;61.70;;;;;;5090871;28;20043;-48
2022/09/27 03:21:14;;;;;;;2.35;0.73;;;21.10;61.60;;;;;;5073746;28;20610;-46
2022/09/27 03:23:40;;;;;;;0.85;0.70;;;21.10;61.60;;;;;;5083406;28;20044;-51
2022/09/27 03:26:06;;;;;;;1.02;0.77;;;21.10;61.50;;;;;;5095920;28;20035;-49
2022/09/27 03:28:32;;;;;;;1.58;1.08;;;21.10;61.60;;;;;;5085418;28;20036;-49
2022/09/27 03:30:58;;;;;;;1.20;0.85;;;21.10;61.60;;;;;;5083507;28;20034;-54
2022/09/27 03:33:24;;;;;;;0.85;0.80;;;21.10;61.70;;;;;;5081642;28;20068;-54
2022/09/27 03:35:50;;;;;;;1.05;0.80;;;21.10;61.60;;;;;;5072062;28;20642;-55
2022/09/27 03:38:17;;;;;;;0.93;0.80;;;21.10;61.60;;;;;;5064845;28;20063;-54
2022/09/27 03:40:43;;;;;;;1.67;1.00;;;21.10;62.30;;;;;;5063580;28;20031;-54
2022/09/27 03:43:09;;;;;;;1.00;0.90;;;21.20;61.80;;;;;;5073933;28;20040;-53
2022/09/27 03:45:35;;;;;;;1.30;1.10;;;21.10;61.80;;;;;;5063334;28;20036;-53
2022/09/27 03:48:01;;;;;;;1.85;1.20;;;21.10;61.80;;;;;;5073337;28;20021;-47
2022/09/27 03:50:27;;;;;;;1.55;1.02;;;21.10;61.90;;;;;;5067650;28;20151;-50
2022/09/27 03:52:53;;;;;;;1.02;0.90;;;21.10;62.00;;;;;;5061300;28;20067;-52
2022/09/27 03:55:19;;;;;;;2.00;1.00;;;21.10;62.00;;;;;;5063085;28;20036;-51
2022/09/27 03:58:06;;;;;;;1.38;0.98;;;21.10;61.90;;;;;;4982662;28;20053;-52
2022/09/27 04:00:32;;;;;;;1.15;1.00;;;21.10;61.80;;;;;;4983108;28;20042;-54
2022/09/27 04:02:59;;;;;;;1.38;1.00;;;21.10;62.10;;;;;;4980888;28;20038;-50
2022/09/27 04:05:25;;;;;;;2.03;1.27;;;21.10;61.90;;;;;;4981916;28;20699;-54
2022/09/27 04:07:52;;;;;;;1.27;1.10;;;21.10;61.90;;;;;;4982317;28;20062;-53
2022/09/27 04:10:18;;;;;;;2.03;1.38;;;21.10;62.00;;;;;;4981353;28;20039;-56
2022/09/27 04:12:44;;;;;;;1.40;1.30;;;21.10;62.00;;;;;;4980373;28;20976;-51
2022/09/27 04:15:10;;;;;;;2.03;1.05;;;21.10;62.20;;;;;;4981302;28;20070;-50
2022/09/27 04:17:37;;;;;;;2.33;1.05;;;21.10;62.20;;;;;;4981983;28;20563;-53
2022/09/27 04:20:03;;;;;;;2.10;0.95;;;21.10;62.30;;;;;;4982128;28;20100;-50
2022/09/27 04:22:29;;;;;;;1.05;0.90;;;21.10;62.00;;;;;;4981741;28;20038;-51
2022/09/27 04:24:55;;;;;;;1.08;0.95;;;21.10;61.80;;;;;;4982065;28;20035;-49
2022/09/27 04:27:21;;;;;;;1.27;1.00;;;21.10;61.80;;;;;;4977288;28;20034;-49
2022/09/27 04:29:48;;;;;;;1.05;0.93;;;21.10;61.60;;;;;;4976863;28;20034;-50
2022/09/27 04:32:14;;;;;;;2.05;1.02;;;21.10;61.60;;;;;;4982330;28;20676;-52
2022/09/27 04:37:25;;;;;;;1.20;1.02;;;21.00;61.60;;;;;;5068342;28;20130;-51
2022/09/27 04:39:51;;;;;;;1.52;1.00;;;21.00;61.50;;;;;;5053613;28;20044;-52
2022/09/27 04:42:18;;;;;;;1.00;0.90;;;21.00;61.40;;;;;;5063434;28;20029;-53
2022/09/27 04:44:44;;;;;;;1.30;1.10;;;21.00;61.40;;;;;;5057311;28;20021;-52
2022/09/27 04:47:10;;;;;;;1.67;1.10;;;21.00;61.40;;;;;;5063254;28;20033;-49
2022/09/27 04:49:37;;;;;;;0.82;0.80;;;21.00;61.50;;;;;;5063869;28;20032;-49
2022/09/27 04:52:04;;;;;;;;;;;21.00;61.50;;;;;;5059643;28;20025;-52
2022/09/27 04:54:30;;;;;;;1.10;0.95;;;21.00;61.60;;;;;;5072617;28;19939;-51
2022/09/27 04:56:57;;;;;;;1.23;1.10;;;21.00;61.60;;;;;;5075234;28;20021;-54
2022/09/27 04:59:23;;;;;;;1.98;1.10;;;21.00;61.60;;;;;;5076745;28;20033;-54
2022/09/27 05:01:49;;;;;;;1.20;1.10;;;21.00;61.70;;;;;;5066334;28;20056;-47
2022/09/27 05:04:15;;;;;;;1.30;1.00;;;21.00;61.60;;;;;;5076876;28;20025;-49
2022/09/27 05:06:41;;;;;;;1.40;1.13;;;21.00;61.70;;;;;;5056205;28;20029;-48
2022/09/27 05:09:07;;;;;;;1.25;1.00;;;20.90;61.60;;;;;;5062562;28;20078;-49
2022/09/27 05:11:36;;;;;;;2.80;1.20;;;21.00;61.70;;;;;;5066597;28;20036;-50
2022/09/27 05:14:03;;;;;;;1.30;1.20;;;20.90;61.70;;;;;;5054762;28;20021;-46
2022/09/27 05:16:30;;;;;;;2.03;1.20;;;20.90;61.90;;;;;;5059839;28;20063;-49
2022/09/27 05:18:56;;;;;;;1.55;1.27;;;20.90;62.00;;;;;;5057491;28;20040;-47
2022/09/27 05:21:22;;;;;;;1.48;1.20;;;20.90;62.00;;;;;;5047738;28;20033;-48
2022/09/27 05:23:48;;;;;;;3.05;1.20;;;20.90;62.10;;;;;;5062376;28;20462;-45
2022/09/27 05:26:14;;;;;;;1.77;1.13;;;20.90;62.10;;;;;;5062595;28;20021;-52
2022/09/27 05:28:41;;;;;;;1.13;1.02;;;20.90;62.60;;;;;;5078130;28;20042;-50
2022/09/27 05:31:08;;;;;;;1.50;1.30;;;20.90;62.20;;;;;;5061977;28;20120;-49
2022/09/27 05:33:34;;;;;;;1.63;1.10;;;20.90;62.30;;;;;;5073292;28;20132;-47
2022/09/27 05:36:01;;;;;;;1.10;1.00;;;20.90;62.20;;;;;;5069641;28;20064;-48
2022/09/27 05:38:27;;;;;;;1.52;1.40;;;20.90;62.30;;;;;;5063396;28;20839;-52
2022/09/27 05:40:53;;;;;;;1.17;1.08;;;20.90;62.20;;;;;;5062957;28;20032;-51
2022/09/27 05:43:20;;;;;;;1.30;1.20;;;20.90;62.20;;;;;;5060082;28;20831;-50
2022/09/27 05:45:46;;;;;;;1.55;1.20;;;20.90;62.30;;;;;;5051144;28;20040;-53
2022/09/27 05:48:13;;;;;;;1.53;1.30;;;20.80;62.10;;;;;;5068467;28;20043;-52
2022/09/27 05:50:39;;;;;;;1.55;1.30;;;20.90;62.10;;;;;;5061405;28;20040;-47
2022/09/27 05:53:05;;;;;;;1.42;1.10;;;20.90;62.20;;;;;;5049317;28;20038;-48
2022/09/27 05:55:32;;;;;;;2.45;1.55;;;20.90;62.20;;;;;;5066502;28;20072;-49
2022/09/27 05:58:00;;;;;;;1.67;1.30;;;20.90;62.30;;;;;;5058103;28;20537;-50
2022/09/27 06:00:26;;;;;;;1.40;1.30;;;20.80;62.20;;;;;;5057934;28;20437;-46
2022/09/27 06:02:57;;;;;;;1.45;1.35;;;20.80;62.30;;;;;;5056579;28;20033;-47
2022/09/27 06:05:24;;;;;;;1.85;1.35;;;20.80;62.30;;;;;;5067254;28;20087;-46
2022/09/27 06:07:51;;;;;;;1.40;1.30;;;20.80;62.30;;;;;;5060336;28;20040;-47
2022/09/27 06:10:18;;;;;;;1.42;1.17;;;20.80;62.30;;;;;;5063154;28;20056;-47
2022/09/27 06:12:44;;;;;;;;;;;20.80;62.30;;;;;;5062712;28;20021;-47
2022/09/27 06:15:10;;;;;;;1.40;1.30;;;20.80;62.30;;;;;;5052901;28;19928;-47
2022/09/27 06:17:36;;;;;;;1.50;1.33;;;20.80;62.40;;;;;;5033288;28;20087;-52
2022/09/27 06:20:03;;;;;;;1.70;1.40;;;20.80;62.30;;;;;;5059985;28;20037;-48
2022/09/27 06:22:29;;;;;;;1.50;1.40;;;20.70;62.20;;;;;;5051739;28;20036;-51
2022/09/27 06:24:56;;;;;;;1.60;1.40;;;20.80;62.30;;;;;;5058746;28;20041;-49
2022/09/27 06:27:22;;;;;;;1.33;1.23;;;20.70;62.40;;;;;;5047686;28;20128;-48
2022/09/27 06:29:48;;;;;;;1.65;1.50;;;20.70;62.40;;;;;;5062771;28;20082;-48
2022/09/27 06:32:14;;;;;;;1.90;1.45;;;20.70;62.40;;;;;;5056473;28;20061;-48
2022/09/27 06:34:40;;;;;;;2.22;1.50;;;20.70;62.50;;;;;;5063633;28;20071;-47
2022/09/27 06:37:06;;;;;;;1.60;1.35;;;20.70;62.60;;;;;;5073390;28;20021;-54
2022/09/27 06:39:33;;;;;;;1.52;1.40;;;20.70;62.60;;;;;;5061093;28;20090;-48
2022/09/27 06:41:59;;;;;;;1.50;1.40;;;20.70;62.70;;;;;;5053138;28;20033;-50
2022/09/27 06:44:25;;;;;;;1.85;1.50;;;20.70;62.70;;;;;;5053213;28;20096;-50
2022/09/27 06:46:52;;;;;;;1.77;1.67;;;20.70;62.90;;;;;;5064792;28;20025;-51
2022/09/27 06:49:19;;;;;;;1.10;1.00;;;20.70;62.90;;;;;;5075494;28;20080;-51
2022/09/27 06:51:45;;;;;;;1.73;1.50;;;20.60;62.90;;;;;;5064380;28;20055;-47
2022/09/27 06:54:11;;;;;;;2.57;1.50;;;20.60;62.90;;;;;;5061938;28;20033;-47
2022/09/27 06:56:37;;;;;;;1.77;1.33;;;20.60;62.90;;;;;;5066674;28;20038;-47
2022/09/27 07:01:51;;;;;;;2.25;1.60;;;20.60;62.80;;;;;;5054694;28;20496;-51
2022/09/27 07:04:17;;;;;;;3.05;1.40;;;20.60;62.60;;;;;;5060120;28;20048;-50
2022/09/27 07:06:44;;;;;;;1.77;1.53;;;20.60;62.70;;;;;;5061455;28;20053;-49
2022/09/27 07:09:10;;;;;;;2.10;1.55;;;20.60;63.00;;;;;;5060563;28;20294;-49
2022/09/27 07:11:36;;;;;;;1.90;1.60;;;20.60;62.90;;;;;;5054722;28;20516;-49
2022/09/27 07:14:03;;;;;;;2.13;1.88;;;20.60;63.00;;;;;;5060306;28;20037;-51
2022/09/27 07:16:33;;;;;;;2.53;1.80;;;20.60;63.00;;;;;;5052750;28;20033;-46
2022/09/27 07:18:59;;;;;;;2.47;1.60;;;20.60;63.10;;;;;;5047824;28;20073;-51
2022/09/27 07:21:26;;;;;;;2.10;1.77;;;20.60;63.20;;;;;;5069337;28;20051;-47
2022/09/27 07:23:52;;;;;;;3.33;1.75;;;20.60;63.40;;;;;;5057519;28;20451;-49
2022/09/27 07:26:18;;;;;;;2.67;1.60;;;20.60;63.50;;;;;;5064427;28;20031;-46
2022/09/27 07:28:44;;;;;;;1.90;1.48;;;20.60;63.50;;;;;;5054660;28;20052;-51
2022/09/27 07:31:11;;;;;;;2.20;1.70;;;20.50;63.30;;;;;;5056076;28;20063;-46
2022/09/27 07:33:38;;;;;;;2.50;1.67;;;20.50;63.30;;;;;;5063895;28;20064;-46
2022/09/27 07:36:08;;;;;;;2.63;1.88;;;20.50;63.30;;;;;;5069026;28;20119;-45
2022/09/27 07:38:55;;;;;;;1.70;1.40;;;20.50;63.20;;;;;;5004890;28;20063;-45
2022/09/27 07:41:21;;;;;;;1.58;1.48;;;20.50;63.40;;;;;;4999329;28;20163;-51
2022/09/27 07:43:47;;;;;;;1.77;1.63;;;20.50;63.30;;;;;;4997680;28;20069;-49
2022/09/27 07:46:13;;;;;;;2.20;1.50;;;20.50;63.30;;;;;;4986435;28;20034;-54
2022/09/27 07:48:40;;;;;;;1.35;1.25;;;20.50;63.40;;;;;;5012088;28;20037;-53
2022/09/27 07:51:07;;;;;;;1.65;1.52;;;20.50;63.40;;;;;;5005415;28;20038;-53
2022/09/27 07:53:33;;;;;;;;;;;20.50;63.40;;;;;;5000827;28;20038;-56
2022/09/27 07:55:59;;;;;;;4.07;1.67;;;20.40;63.40;;;;;;5000619;28;19914;-55
2022/09/27 07:58:25;;;;;;;2.63;1.70;;;20.40;63.40;;;;;;4997450;28;20030;-52
2022/09/27 08:00:53;;;;;;;1.70;1.55;;;20.40;63.50;;;;;;5001104;28;20034;-51
2022/09/27 08:03:19;;;;;;;3.05;1.63;;;20.40;63.50;;;;;;4999538;28;20202;-47
2022/09/27 08:05:46;;;;;;;2.55;1.73;;;20.40;63.50;;;;;;4999535;28;20045;-47
2022/09/27 08:08:12;;;;;;;1.75;1.50;;;20.40;63.30;;;;;;5000371;28;20161;-47
2022/09/27 08:10:42;;;;;;;3.85;1.65;;;20.40;63.20;;;;;;4996294;28;20646;-43
2022/09/27 08:13:09;;;;;;;1.60;1.50;;;20.40;63.10;;;;;;4999299;28;20085;-45
2022/09/27 08:15:37;;;;;;;2.10;1.63;;;20.40;63.10;;;;;;5017897;28;20041;-44
2022/09/27 08:18:04;;;;;;;2.15;1.88;;;20.40;63.00;;;;;;5054036;28;20040;-45
2022/09/27 08:20:30;;;;;;;2.25;1.67;;;20.30;63.20;;;;;;5049340;28;20025;-46
2022/09/27 08:22:57;;;;;;;8.95;2.08;;;20.30;63.20;;;;;;5049240;28;20615;-46
2022/09/27 08:25:23;;;;;;;14.43;2.60;;;20.30;63.40;;;;;;5065637;28;20033;-48
2022/09/27 08:27:56;;;;;;;4.63;1.80;;;20.30;63.50;;;;;;5063156;28;20029;-48
2022/09/27 08:30:23;;;;;;;8.45;2.58;;;20.30;63.70;;;;;;5069579;28;20043;-46
2022/09/27 08:32:49;;;;;;;10.73;2.73;;;20.30;64.10;;;;;;5056074;28;20045;-47
2022/09/27 08:35:15;;;;;;;5.90;2.20;;;20.30;64.00;;;;;;5063159;28;20356;-49
2022/09/27 08:37:41;;;;;;;9.90;2.60;;;20.30;63.90;;;;;;5074245;28;20123;-50
2022/09/27 08:40:09;;;;;;;8.10;2.63;;;20.30;63.80;;;;;;5057082;28;20082;-48
2022/09/27 08:42:45;;;;;;;7.10;2.70;;;20.30;63.80;;;;;;5038107;28;20033;-49
2022/09/27 08:45:17;;;;;;;5.10;2.28;;;20.30;63.60;;;;;;5059117;28;20451;-47
2022/09/27 08:47:44;;;;;;;5.90;2.55;;;20.30;63.50;;;;;;5027904;28;20060;-48
2022/09/27 08:50:14;;;;;;;6.80;2.60;;;20.30;63.50;;;;;;5057545;28;20175;-47
2022/09/27 08:52:43;;;;;;;5.38;2.10;;;20.20;63.40;;;;;;5055243;28;20032;-49
2022/09/27 08:55:29;;;;;;;5.25;1.88;;;20.30;63.40;;;;;;5053851;28;20048;-48
2022/09/27 08:57:56;;;;;;;6.18;2.17;;;20.30;63.30;;;;;;5028296;28;20054;-51
2022/09/27 09:00:23;;;;;;;5.75;2.42;;;20.20;63.20;;;;;;5050023;28;20042;-51
2022/09/27 09:02:49;;;;;;;5.70;2.10;;;20.20;63.10;;;;;;5059425;28;20052;-49
2022/09/27 09:05:29;;;;;;;4.03;2.10;;;20.20;63.10;;;;;;5050174;28;20047;-49
2022/09/27 09:08:36;;;;;;;3.72;2.08;;;20.20;63.00;;;;;;5031095;28;20092;-53
2022/09/27 09:14:56;;;;;;;4.18;2.00;;;20.20;63.00;;;;;;5035909;28;20048;-51
2022/09/27 09:18:00;;;;;;;6.60;2.55;;;20.10;62.90;;;;;;5031034;28;20062;-54
2022/09/27 09:20:39;;;;;;;3.60;2.00;;;20.10;62.80;;;;;;5048986;28;20033;-51
2022/09/27 09:23:35;;;;;;;3.40;2.05;;;20.10;62.80;;;;;;5012664;28;20132;-52
2022/09/27 09:26:05;;;;;;;2.38;1.83;;;20.10;62.80;;;;;;5036474;28;20462;-50
2022/09/27 09:29:23;;;;;;;2.80;1.73;;;20.00;62.70;;;;;;5028684;28;20167;-49
2022/09/27 09:32:26;;;;;;;4.40;2.05;;;20.00;62.70;;;;;;4992971;28;20077;-50
2022/09/27 09:35:19;;;;;;;2.83;2.10;;;20.00;62.60;;;;;;5015168;28;20042;-49
2022/09/27 09:37:48;;;;;;;3.63;2.03;;;20.00;62.70;;;;;;5015333;28;20049;-52
2022/09/27 09:40:39;;;;;;;2.95;1.90;;;20.00;62.70;;;;;;4997877;28;20038;-49
2022/09/27 09:43:40;;;;;;;3.92;2.10;;;20.00;62.70;;;;;;5016030;28;20133;-50
2022/09/27 09:46:12;;;;;;;2.85;1.75;;;20.00;62.60;;;;;;4997944;28;20052;-48
2022/09/27 09:48:55;;;;;;;2.42;1.70;;;20.00;62.70;;;;;;4996741;28;20049;-48
2022/09/27 09:51:30;;;;;;;3.45;1.80;;;19.90;62.60;;;;;;5013617;28;20030;-47
2022/09/27 09:54:01;;;;;;;2.50;1.98;;;19.90;62.60;;;;;;5014533;28;20057;-47
2022/09/27 09:56:31;;;;;;;2.30;1.65;;;19.90;62.60;;;;;;5014196;28;20052;-49
2022/09/27 09:59:03;;;;;;;2.30;1.80;;;19.90;62.60;;;;;;4999320;28;20069;-44
2022/09/27 10:01:42;;;;;;;3.63;2.17;;;19.90;62.70;;;;;;4994906;28;20041;-44
2022/09/27 10:04:32;;;;;;;2.50;1.60;;;19.90;62.60;;;;;;5016315;28;20060;-44
2022/09/27 10:06:58;;;;;;;2.42;1.75;;;19.80;62.60;;;;;;4998993;28;20639;-44
2022/09/27 10:09:26;;;;;;;2.92;2.00;;;19.80;62.60;;;;;;5044568;28;20029;-43
2022/09/27 10:11:52;;;;;;;;;;;19.80;62.60;;;;;;5038525;28;20480;-47
2022/09/27 10:14:20;;;;;;;3.58;1.60;;;19.80;62.60;;;;;;5055812;28;19950;-47
2022/09/27 10:17:07;;;;;;;3.05;1.65;;;19.80;62.60;;;;;;5056545;28;20033;-44
2022/09/27 10:19:34;;;;;;;3.55;1.80;;;19.80;62.70;;;;;;5040778;28;20067;-45
2022/09/27 10:22:16;;;;;;;2.67;1.70;;;19.80;62.60;;;;;;5052759;28;20100;-53
2022/09/27 10:25:03;;;;;;;2.95;1.80;;;19.70;62.60;;;;;;5039786;28;20029;-44
2022/09/27 10:27:39;;;;;;;3.50;1.80;;;19.70;62.60;;;;;;5052057;28;20032;-40
2022/09/27 10:30:06;;;;;;;3.38;1.65;;;19.70;62.80;;;;;;5049913;28;20075;-36
2022/09/27 10:32:35;;;;;;;13.75;3.35;;;19.70;63.30;;;;;;5047415;28;20059;-39
2022/09/27 10:35:40;;;;;;;14.82;3.10;;;19.70;63.60;;;;;;5032779;28;20164;-39
2022/09/27 10:38:20;;;;;;;8.10;2.60;;;19.70;64.10;;;;;;5049800;28;20056;-38
2022/09/27 10:40:47;;;;;;;16.25;2.70;;;19.60;64.10;;;;;;5049124;28;20053;-40
2022/09/27 10:43:27;;;;;;;10.43;2.80;;;19.60;64.20;;;;;;5025963;28;20045;-40
2022/09/27 10:46:15;;;;;;;13.73;3.10;;;19.70;64.80;;;;;;5055753;28;20342;-41
2022/09/27 10:48:42;;;;;;;9.70;3.50;;;19.60;65.00;;;;;;5049071;28;20028;-37
2022/09/27 10:51:29;;;;;;;8.68;2.90;;;19.60;65.70;;;;;;5056429;28;20064;-48
2022/09/27 10:53:59;;;;;;;10.87;2.90;;;19.60;66.00;;;;;;5052301;28;20371;-46
2022/09/27 10:56:33;;;;;;;8.00;2.95;;;19.60;65.90;;;;;;5060935;28;20029;-50
2022/09/27 10:58:59;;;;;;;10.27;2.72;;;19.60;66.00;;;;;;5027490;28;20041;-52
2022/09/27 11:01:26;;;;;;;8.80;2.55;;;19.60;65.80;;;;;;5044790;28;20025;-51
2022/09/27 11:03:57;;;;;;;4.18;2.47;;;19.60;65.80;;;;;;5045018;28;20074;-53
2022/09/27 11:06:23;;;;;;;6.90;2.60;;;19.60;65.70;;;;;;5033171;28;20081;-51
2022/09/27 11:08:50;;;;;;;7.53;2.17;;;19.60;65.50;;;;;;5053311;28;20039;-52
2022/09/27 11:11:22;;;;;;;10.82;2.65;;;19.60;65.30;;;;;;5061450;28;20033;-50
2022/09/27 11:14:08;;;;;;;4.65;2.17;;;19.60;65.20;;;;;;5053713;28;20025;-49
2022/09/27 11:16:56;;;;;;;4.90;2.30;;;19.60;65.80;;;;;;5041466;28;20029;-52
2022/09/27 11:19:29;;;;;;;3.75;1.88;;;19.60;65.00;;;;;;5054709;28;20037;-51
2022/09/27 11:22:08;;;;;;;4.55;2.03;;;19.60;64.90;;;;;;5029785;28;20021;-51
2022/09/27 11:24:45;;;;;;;6.10;2.28;;;19.60;64.80;;;;;;5065389;28;20033;-53
2022/09/27 11:27:22;;;;;;;5.45;2.45;;;19.60;64.70;;;;;;5066582;28;20040;-49
2022/09/27 11:29:49;;;;;;;;;;;19.50;64.60;;;;;;5065772;28;20048;-52
2022/09/27 11:32:48;;;;;;;5.60;2.25;;;19.50;64.50;;;;;;5062624;28;19915;-51
2022/09/27 11:35:59;;;;;;;3.63;1.70;;;19.50;64.50;;;;;;5030529;28;20049;-50
2022/09/27 11:38:45;;;;;;;3.83;1.83;;;19.50;64.40;;;;;;4944547;29;20055;-53
2022/09/27 11:41:20;;;;;;;4.93;2.20;;;19.50;64.30;;;;;;4935394;29;20039;-52
2022/09/27 11:43:54;;;;;;;3.35;1.77;;;19.40;64.20;;;;;;4945090;29;20031;-52
2022/09/27 11:46:31;;;;;;;3.15;1.60;;;19.40;64.20;;;;;;4941721;29;20079;-53
2022/09/27 11:49:07;;;;;;;4.10;1.90;;;19.40;64.10;;;;;;4945206;29;20111;-49
2022/09/27 11:51:54;;;;;;;3.92;1.73;;;19.40;64.10;;;;;;4936248;29;20095;-50
2022/09/27 11:54:25;;;;;;;3.60;1.88;;;19.40;64.10;;;;;;4944972;29;20043;-52
2022/09/27 11:57:04;;;;;;;4.15;1.70;;;19.40;64.00;;;;;;4945487;29;20231;-51
2022/09/27 11:59:59;;;;;;;4.00;1.80;;;19.40;64.00;;;;;;4959531;29;20039;-50
2022/09/27 12:02:43;;;;;;;4.95;1.65;;;19.40;64.00;;;;;;4945064;29;20047;-50
2022/09/27 12:05:19;;;;;;;5.88;1.65;;;19.30;63.80;;;;;;4947032;29;20082;-51
2022/09/27 12:08:00;;;;;;;4.05;1.70;;;19.30;63.80;;;;;;4955799;29;20040;-50
2022/09/27 12:10:26;;;;;;;3.80;1.80;;;19.30;63.80;;;;;;4944811;29;20032;-52
2022/09/27 12:12:54;;;;;;;2.55;1.63;;;19.30;64.00;;;;;;4946176;28;20036;-53
2022/09/27 12:15:26;;;;;;;3.85;1.48;;;19.30;63.80;;;;;;5039669;28;20040;-49
2022/09/27 12:17:55;;;;;;;3.20;1.60;;;19.30;63.80;;;;;;5011394;28;20049;-55
2022/09/27 12:20:21;;;;;;;3.25;1.50;;;19.20;63.80;;;;;;5047885;28;20060;-53
2022/09/27 12:22:56;;;;;;;2.75;1.50;;;19.20;63.70;;;;;;5064331;28;20033;-53
2022/09/27 12:25:23;;;;;;;2.38;1.52;;;19.20;63.70;;;;;;5064773;28;20032;-48
2022/09/27 12:27:50;;;;;;;;;;;19.20;63.70;;;;;;5055317;28;20059;-54
2022/09/27 12:30:16;;;;;;;2.20;1.63;;;19.20;63.70;;;;;;5062259;28;19932;-49
2022/09/27 12:33:06;;;;;;;2.58;1.40;;;19.20;63.80;;;;;;5050604;28;20044;-52
2022/09/27 12:35:43;;;;;;;2.17;1.42;;;19.10;63.60;;;;;;5059133;28;20036;-49
2022/09/27 12:38:14;;;;;;;3.50;1.70;;;19.10;63.60;;;;;;5041312;28;20033;-51
2022/09/27 12:40:43;;;;;;;2.25;1.58;;;19.10;63.70;;;;;;5032285;28;21153;-52
2022/09/27 12:43:13;;;;;;;2.25;1.50;;;19.10;63.70;;;;;;5016803;28;20033;-53
2022/09/27 12:45:49;;;;;;;2.00;1.50;;;19.10;63.70;;;;;;5055325;28;20028;-51
2022/09/27 12:48:46;;;;;;;2.80;1.25;;;19.10;63.70;;;;;;5047555;28;20043;-52
2022/09/27 12:51:18;;;;;;;2.28;1.42;;;19.10;63.70;;;;;;5038294;28;20039;-52
2022/09/27 12:54:12;;;;;;;2.25;1.50;;;19.00;63.60;;;;;;5028805;28;20022;-52
2022/09/27 12:57:00;;;;;;;1.75;1.40;;;19.00;63.70;;;;;;5044105;28;20033;-50
2022/09/27 12:59:48;;;;;;;1.95;1.40;;;19.00;63.70;;;;;;5027033;28;20048;-51
2022/09/27 13:02:17;;;;;;;1.70;1.20;;;19.00;63.70;;;;;;5052122;28;20037;-50
2022/09/27 13:05:21;;;;;;;1.85;1.50;;;19.00;63.70;;;;;;5046017;28;20030;-50
2022/09/27 13:07:57;;;;;;;2.85;1.30;;;19.00;63.70;;;;;;5063386;28;20059;-51
2022/09/27 13:10:29;;;;;;;1.90;1.30;;;18.90;63.60;;;;;;5056746;28;20029;-52
2022/09/27 13:12:56;;;;;;;3.03;1.40;;;18.90;63.70;;;;;;5061278;28;20052;-51
2022/09/27 13:15:26;;;;;;;2.85;1.20;;;18.90;63.70;;;;;;5032700;28;20038;-47
2022/09/27 13:17:55;;;;;;;1.50;1.20;;;18.90;63.70;;;;;;5049910;28;20037;-51
2022/09/27 13:20:30;;;;;;;2.80;1.40;;;18.90;63.70;;;;;;5032154;28;20056;-49
2022/09/27 13:23:17;;;;;;;1.55;1.10;;;18.90;63.70;;;;;;5056414;28;20036;-51